sensor_id;sensor_type;location;lat;lon;timestamp;pressure;altitude;pressure_sealevel;temperature;humidity
35226;BME280;21813;49.686;21.766;2023-03-03T00:01:32;98634.47;;;-2.57;100.00
35226;BME280;21813;49.686;21.766;2023-03-03T00:03:59;98635.41;;;-2.59;100.00
35226;BME280;21813;49.686;21.766;2023-03-03T00:06:25;98630.41;;;-2.64;100.00
35226;BME280;21813;49.686;21.766;2023-03-03T00:09:02;98628.66;;;-2.63;100.00
35226;BME280;21813;49.686;21.766;2023-03-03T00:11:34;98620.22;;;-2.65;100.00
35226;BME280;21813;49.686;21.766;2023-03-03T00:14:00;98616.94;;;-2.71;100.00
35226;BME280;21813;49.686;21.766;2023-03-03T00:16:37;98603.47;;;-2.77;100.00
35226;BME280;21813;49.686;21.766;2023-03-03T00:19:18;98613.56;;;-2.71;100.00
35226;BME280;21813;49.686;21.766;2023-03-03T00:21:50;98612.75;;;-2.73;100.00
35226;BME280;21813;49.686;21.766;2023-03-03T00:24:36;98616.13;;;-2.73;100.00
35226;BME280;21813;49.686;21.766;2023-03-03T00:27:16;98598.47;;;-2.80;100.00
35226;BME280;21813;49.686;21.766;2023-03-03T00:29:51;98602.66;;;-2.78;100.00
35226;BME280;21813;49.686;21.766;2023-03-03T00:32:26;98605.97;;;-2.74;100.00
35226;BME280;21813;49.686;21.766;2023-03-03T00:38:01;98604.38;;;-2.78;100.00
35226;BME280;21813;49.686;21.766;2023-03-03T00:40:36;98596.00;;;-2.83;100.00
35226;BME280;21813;49.686;21.766;2023-03-03T00:45:51;98589.34;;;-2.90;100.00
35226;BME280;21813;49.686;21.766;2023-03-03T00:48:28;98589.38;;;-2.92;100.00
35226;BME280;21813;49.686;21.766;2023-03-03T00:51:00;98594.50;;;-2.93;100.00
35226;BME280;21813;49.686;21.766;2023-03-03T00:53:29;98597.94;;;-2.94;100.00
35226;BME280;21813;49.686;21.766;2023-03-03T00:55:56;98597.25;;;-3.02;100.00
35226;BME280;21813;49.686;21.766;2023-03-03T00:58:23;98603.13;;;-2.99;100.00
35226;BME280;21813;49.686;21.766;2023-03-03T01:00:51;98601.53;;;-3.04;100.00
35226;BME280;21813;49.686;21.766;2023-03-03T01:03:21;98605.78;;;-3.03;100.00
35226;BME280;21813;49.686;21.766;2023-03-03T01:05:48;98605.78;;;-3.03;100.00
35226;BME280;21813;49.686;21.766;2023-03-03T01:08:16;98589.75;;;-3.08;100.00
35226;BME280;21813;49.686;21.766;2023-03-03T01:10:49;98596.53;;;-3.07;100.00
35226;BME280;21813;49.686;21.766;2023-03-03T01:13:16;98581.34;;;-3.12;100.00
35226;BME280;21813;49.686;21.766;2023-03-03T01:15:46;98588.91;;;-3.09;100.00
35226;BME280;21813;49.686;21.766;2023-03-03T01:18:13;98592.34;;;-3.10;100.00
35226;BME280;21813;49.686;21.766;2023-03-03T01:20:40;98584.81;;;-3.15;100.00
35226;BME280;21813;49.686;21.766;2023-03-03T01:23:06;98580.56;;;-3.16;100.00
35226;BME280;21813;49.686;21.766;2023-03-03T01:25:35;98572.25;;;-3.24;100.00
35226;BME280;21813;49.686;21.766;2023-03-03T01:28:01;98586.56;;;-3.18;100.00
35226;BME280;21813;49.686;21.766;2023-03-03T01:30:39;98581.56;;;-3.23;100.00
35226;BME280;21813;49.686;21.766;2023-03-03T01:33:04;98579.06;;;-3.24;100.00
35226;BME280;21813;49.686;21.766;2023-03-03T01:35:35;98577.41;;;-3.27;100.00
35226;BME280;21813;49.686;21.766;2023-03-03T01:38:04;98574.09;;;-3.32;100.00
35226;BME280;21813;49.686;21.766;2023-03-03T01:40:30;98575.03;;;-3.36;100.00
35226;BME280;21813;49.686;21.766;2023-03-03T01:42:59;98579.31;;;-3.36;100.00
35226;BME280;21813;49.686;21.766;2023-03-03T01:48:43;98566.72;;;-3.42;100.00
35226;BME280;21813;49.686;21.766;2023-03-03T01:53:45;98575.16;;;-3.42;100.00
35226;BME280;21813;49.686;21.766;2023-03-03T01:56:18;98571.91;;;-3.47;100.00
35226;BME280;21813;49.686;21.766;2023-03-03T01:59:04;98577.88;;;-3.49;100.00
35226;BME280;21813;49.686;21.766;2023-03-03T02:01:32;98572.88;;;-3.54;100.00
35226;BME280;21813;49.686;21.766;2023-03-03T02:03:59;98576.34;;;-3.57;100.00
35226;BME280;21813;49.686;21.766;2023-03-03T02:06:40;98576.34;;;-3.57;100.00
35226;BME280;21813;49.686;21.766;2023-03-03T02:09:24;98573.88;;;-3.61;100.00
35226;BME280;21813;49.686;21.766;2023-03-03T02:11:57;98570.59;;;-3.66;100.00
35226;BME280;21813;49.686;21.766;2023-03-03T02:14:24;98575.72;;;-3.69;100.00
35226;BME280;21813;49.686;21.766;2023-03-03T02:17:05;98575.72;;;-3.69;100.00
35226;BME280;21813;49.686;21.766;2023-03-03T02:19:50;98585.91;;;-3.69;100.00
35226;BME280;21813;49.686;21.766;2023-03-03T02:25:24;98596.16;;;-3.71;100.00
35226;BME280;21813;49.686;21.766;2023-03-03T02:27:54;98588.53;;;-3.72;100.00
35226;BME280;21813;49.686;21.766;2023-03-03T02:30:22;98601.19;;;-3.69;100.00
35226;BME280;21813;49.686;21.766;2023-03-03T02:32:49;98597.84;;;-3.71;100.00
35226;BME280;21813;49.686;21.766;2023-03-03T02:35:41;98602.03;;;-3.69;100.00
35226;BME280;21813;49.686;21.766;2023-03-03T02:40:41;98593.63;;;-3.74;100.00
35226;BME280;21813;49.686;21.766;2023-03-03T02:43:10;98588.56;;;-3.74;100.00
35226;BME280;21813;49.686;21.766;2023-03-03T02:45:43;98587.72;;;-3.74;100.00
35226;BME280;21813;49.686;21.766;2023-03-03T02:48:11;98592.78;;;-3.74;100.00
35226;BME280;21813;49.686;21.766;2023-03-03T02:50:36;98583.63;;;-3.81;100.00
35226;BME280;21813;49.686;21.766;2023-03-03T02:53:03;98577.78;;;-3.86;100.00
35226;BME280;21813;49.686;21.766;2023-03-03T02:55:32;98576.03;;;-3.84;100.00
35226;BME280;21813;49.686;21.766;2023-03-03T02:57:58;98566.84;;;-3.91;100.00
35226;BME280;21813;49.686;21.766;2023-03-03T03:00:31;98570.31;;;-3.95;100.00
35226;BME280;21813;49.686;21.766;2023-03-03T03:03:04;98569.44;;;-3.94;100.00
35226;BME280;21813;49.686;21.766;2023-03-03T03:05:42;98572.84;;;-3.95;100.00
35226;BME280;21813;49.686;21.766;2023-03-03T03:08:09;98567.88;;;-4.02;100.00
35226;BME280;21813;49.686;21.766;2023-03-03T03:10:35;98567.88;;;-4.02;100.00
35226;BME280;21813;49.686;21.766;2023-03-03T03:13:01;98571.31;;;-4.03;100.00
35226;BME280;21813;49.686;21.766;2023-03-03T03:15:30;98569.63;;;-4.04;100.00
35226;BME280;21813;49.686;21.766;2023-03-03T03:17:58;98569.72;;;-4.10;100.00
35226;BME280;21813;49.686;21.766;2023-03-03T03:20:24;98562.09;;;-4.10;100.00
35226;BME280;21813;49.686;21.766;2023-03-03T03:22:50;98566.38;;;-4.12;100.00
35226;BME280;21813;49.686;21.766;2023-03-03T03:25:16;98566.38;;;-4.12;100.00
35226;BME280;21813;49.686;21.766;2023-03-03T03:27:42;98567.25;;;-4.13;100.00
35226;BME280;21813;49.686;21.766;2023-03-03T03:30:08;98571.47;;;-4.12;100.00
35226;BME280;21813;49.686;21.766;2023-03-03T03:32:34;98568.16;;;-4.17;100.00
35226;BME280;21813;49.686;21.766;2023-03-03T03:35:00;98569.81;;;-4.16;100.00
35226;BME280;21813;49.686;21.766;2023-03-03T03:37:27;98574.97;;;-4.19;100.00
35226;BME280;21813;49.686;21.766;2023-03-03T03:39:52;98569.88;;;-4.19;100.00
35226;BME280;21813;49.686;21.766;2023-03-03T03:42:19;98574.09;;;-4.16;100.00
35226;BME280;21813;49.686;21.766;2023-03-03T03:44:45;98574.13;;;-4.18;100.00
35226;BME280;21813;49.686;21.766;2023-03-03T03:47:11;98564.81;;;-4.19;100.00
35226;BME280;21813;49.686;21.766;2023-03-03T03:49:37;98565.63;;;-4.18;100.00
35226;BME280;21813;49.686;21.766;2023-03-03T03:52:05;98570.81;;;-4.23;100.00
35226;BME280;21813;49.686;21.766;2023-03-03T03:54:30;98567.41;;;-4.22;100.00
35226;BME280;21813;49.686;21.766;2023-03-03T03:56:57;98576.72;;;-4.21;100.00
35226;BME280;21813;49.686;21.766;2023-03-03T03:59:23;98576.66;;;-4.18;100.00
35226;BME280;21813;49.686;21.766;2023-03-03T04:01:49;98574.19;;;-4.22;100.00
35226;BME280;21813;49.686;21.766;2023-03-03T04:04:15;98571.66;;;-4.24;100.00
35226;BME280;21813;49.686;21.766;2023-03-03T04:06:42;98563.19;;;-4.23;100.00
35226;BME280;21813;49.686;21.766;2023-03-03T04:09:08;98559.81;;;-4.25;100.00
35226;BME280;21813;49.686;21.766;2023-03-03T04:11:35;98564.81;;;-4.19;100.00
35226;BME280;21813;49.686;21.766;2023-03-03T04:14:00;98561.38;;;-4.16;100.00
35226;BME280;21813;49.686;21.766;2023-03-03T04:16:27;98549.53;;;-4.19;100.00
35226;BME280;21813;49.686;21.766;2023-03-03T04:18:53;98557.06;;;-4.13;100.00
35226;BME280;21813;49.686;21.766;2023-03-03T04:21:20;98552.91;;;-4.17;100.00
35226;BME280;21813;49.686;21.766;2023-03-03T04:23:45;98561.28;;;-4.12;100.00
35226;BME280;21813;49.686;21.766;2023-03-03T04:26:16;98556.22;;;-4.12;100.00
35226;BME280;21813;49.686;21.766;2023-03-03T04:28:42;98558.69;;;-4.10;100.00
35226;BME280;21813;49.686;21.766;2023-03-03T04:31:09;98551.03;;;-4.09;100.00
35226;BME280;21813;49.686;21.766;2023-03-03T04:33:35;98566.22;;;-4.03;100.00
35226;BME280;21813;49.686;21.766;2023-03-03T04:36:02;98556.84;;;-4.02;100.00
35226;BME280;21813;49.686;21.766;2023-03-03T04:38:28;98551.75;;;-4.01;100.00
35226;BME280;21813;49.686;21.766;2023-03-03T04:40:56;98544.97;;;-4.02;100.00
35226;BME280;21813;49.686;21.766;2023-03-03T04:43:22;98542.41;;;-4.02;100.00
35226;BME280;21813;49.686;21.766;2023-03-03T04:45:50;98551.63;;;-3.94;100.00
35226;BME280;21813;49.686;21.766;2023-03-03T04:48:18;98544.84;;;-3.94;100.00
35226;BME280;21813;49.686;21.766;2023-03-03T04:50:44;98546.44;;;-3.90;100.00
35226;BME280;21813;49.686;21.766;2023-03-03T04:53:10;98537.97;;;-3.90;100.00
35226;BME280;21813;49.686;21.766;2023-03-03T04:55:37;98541.28;;;-3.87;100.00
35226;BME280;21813;49.686;21.766;2023-03-03T04:58:04;98528.66;;;-3.91;100.00
35226;BME280;21813;49.686;21.766;2023-03-03T05:00:31;98533.69;;;-3.88;100.00
35226;BME280;21813;49.686;21.766;2023-03-03T05:02:57;98530.25;;;-3.87;100.00
35226;BME280;21813;49.686;21.766;2023-03-03T05:05:26;98540.41;;;-3.84;100.00
35226;BME280;21813;49.686;21.766;2023-03-03T05:07:51;98530.25;;;-3.86;100.00
35226;BME280;21813;49.686;21.766;2023-03-03T05:10:18;98527.69;;;-3.86;100.00
35226;BME280;21813;49.686;21.766;2023-03-03T05:12:48;98530.22;;;-3.84;100.00
35226;BME280;21813;49.686;21.766;2023-03-03T05:15:15;98535.25;;;-3.81;100.00
35226;BME280;21813;49.686;21.766;2023-03-03T05:17:41;98537.69;;;-3.75;100.00
35226;BME280;21813;49.686;21.766;2023-03-03T05:20:08;98536.00;;;-3.78;100.00
35226;BME280;21813;49.686;21.766;2023-03-03T05:22:37;98535.13;;;-3.75;100.00
35226;BME280;21813;49.686;21.766;2023-03-03T05:25:08;98536.78;;;-3.74;100.00
35226;BME280;21813;49.686;21.766;2023-03-03T05:27:40;98542.59;;;-3.68;100.00
35226;BME280;21813;49.686;21.766;2023-03-03T05:30:16;98548.47;;;-3.64;100.00
35226;BME280;21813;49.686;21.766;2023-03-03T05:32:58;98543.41;;;-3.66;100.00
35226;BME280;21813;49.686;21.766;2023-03-03T05:35:29;98544.97;;;-3.60;100.00
35226;BME280;21813;49.686;21.766;2023-03-03T05:37:55;98533.16;;;-3.63;100.00
35226;BME280;21813;49.686;21.766;2023-03-03T05:40:26;98545.81;;;-3.58;100.00
35226;BME280;21813;49.686;21.766;2023-03-03T05:42:59;98543.13;;;-3.52;100.00
35226;BME280;21813;49.686;21.766;2023-03-03T05:45:28;98544.78;;;-3.51;100.00
35226;BME280;21813;49.686;21.766;2023-03-03T05:48:01;98558.28;;;-3.46;100.00
35226;BME280;21813;49.686;21.766;2023-03-03T05:50:31;98553.19;;;-3.46;100.00
35226;BME280;21813;49.686;21.766;2023-03-03T05:53:06;98558.25;;;-3.44;100.00
35226;BME280;21813;49.686;21.766;2023-03-03T05:55:33;98559.06;;;-3.42;100.00
35226;BME280;21813;49.686;21.766;2023-03-03T05:57:59;98559.84;;;-3.39;100.00
35226;BME280;21813;49.686;21.766;2023-03-03T06:00:25;98555.53;;;-3.37;100.00
35226;BME280;21813;49.686;21.766;2023-03-03T06:02:54;98549.56;;;-3.36;100.00
35226;BME280;21813;49.686;21.766;2023-03-03T06:05:21;98553.78;;;-3.33;100.00
35226;BME280;21813;49.686;21.766;2023-03-03T06:07:47;98563.06;;;-3.31;100.00
35226;BME280;21813;49.686;21.766;2023-03-03T06:10:14;98559.63;;;-3.30;100.00
35226;BME280;21813;49.686;21.766;2023-03-03T06:12:40;98561.25;;;-3.26;100.00
35226;BME280;21813;49.686;21.766;2023-03-03T06:15:08;98556.06;;;-3.23;100.00
35226;BME280;21813;49.686;21.766;2023-03-03T06:17:34;98554.34;;;-3.21;100.00
35226;BME280;21813;49.686;21.766;2023-03-03T06:20:01;98568.63;;;-3.14;100.00
35226;BME280;21813;49.686;21.766;2023-03-03T06:22:29;98570.16;;;-3.06;100.00
35226;BME280;21813;49.686;21.766;2023-03-03T06:24:55;98565.84;;;-3.04;100.00
35226;BME280;21813;49.686;21.766;2023-03-03T06:27:21;98561.50;;;-2.99;100.00
35226;BME280;21813;49.686;21.766;2023-03-03T06:29:48;98574.13;;;-2.93;100.00
35226;BME280;21813;49.686;21.766;2023-03-03T06:32:14;98576.47;;;-2.86;100.00
35226;BME280;21813;49.686;21.766;2023-03-03T06:34:40;98577.28;;;-2.82;100.00
35226;BME280;21813;49.686;21.766;2023-03-03T06:37:05;98589.84;;;-2.76;100.00
35226;BME280;21813;49.686;21.766;2023-03-03T06:39:33;98583.03;;;-2.74;100.00
35226;BME280;21813;49.686;21.766;2023-03-03T06:41:59;98590.59;;;-2.71;100.00
35226;BME280;21813;49.686;21.766;2023-03-03T06:44:26;98595.63;;;-2.68;100.00
35226;BME280;21813;49.686;21.766;2023-03-03T06:46:58;98590.38;;;-2.62;100.00
35226;BME280;21813;49.686;21.766;2023-03-03T06:53:30;98588.25;;;-2.45;100.00
35226;BME280;21813;49.686;21.766;2023-03-03T06:55:58;98583.13;;;-2.43;100.00
35226;BME280;21813;49.686;21.766;2023-03-03T06:58:26;98583.84;;;-2.38;100.00
35226;BME280;21813;49.686;21.766;2023-03-03T07:00:57;98593.06;;;-2.33;100.00
35226;BME280;21813;49.686;21.766;2023-03-03T07:03:26;98590.41;;;-2.28;100.00
35226;BME280;21813;49.686;21.766;2023-03-03T07:05:54;98589.47;;;-2.26;100.00
35226;BME280;21813;49.686;21.766;2023-03-03T07:08:22;98581.81;;;-2.26;100.00
35226;BME280;21813;49.686;21.766;2023-03-03T07:10:53;98599.44;;;-2.16;100.00
35226;BME280;21813;49.686;21.766;2023-03-03T07:13:27;98593.44;;;-2.14;100.00
35226;BME280;21813;49.686;21.766;2023-03-03T07:15:58;98596.72;;;-2.09;100.00
35226;BME280;21813;49.686;21.766;2023-03-03T07:18:36;98594.06;;;-2.04;100.00
35226;BME280;21813;49.686;21.766;2023-03-03T07:21:17;98598.97;;;-1.98;100.00
35226;BME280;21813;49.686;21.766;2023-03-03T07:23:45;98589.59;;;-1.98;100.00
35226;BME280;21813;49.686;21.766;2023-03-03T07:26:33;98592.03;;;-1.93;100.00
35226;BME280;21813;49.686;21.766;2023-03-03T07:29:02;98597.94;;;-1.90;100.00
35226;BME280;21813;49.686;21.766;2023-03-03T07:31:36;98591.00;;;-1.86;100.00
35226;BME280;21813;49.686;21.766;2023-03-03T07:34:20;98595.16;;;-1.82;100.00
35226;BME280;21813;49.686;21.766;2023-03-03T07:36:49;98589.97;;;-1.79;100.00
35226;BME280;21813;49.686;21.766;2023-03-03T07:42:01;98588.88;;;-1.70;100.00
35226;BME280;21813;49.686;21.766;2023-03-03T07:44:35;98589.53;;;-1.64;100.00
35226;BME280;21813;49.686;21.766;2023-03-03T07:47:22;98589.38;;;-1.58;100.00
35226;BME280;21813;49.686;21.766;2023-03-03T07:49:50;98585.88;;;-1.54;100.00
35226;BME280;21813;49.686;21.766;2023-03-03T07:52:27;98578.91;;;-1.49;100.00
35226;BME280;21813;49.686;21.766;2023-03-03T07:54:55;98581.28;;;-1.43;100.00
35226;BME280;21813;49.686;21.766;2023-03-03T07:57:42;98575.97;;;-1.35;100.00
35226;BME280;21813;49.686;21.766;2023-03-03T08:03:01;98567.88;;;-1.21;100.00
35226;BME280;21813;49.686;21.766;2023-03-03T08:05:41;98556.69;;;-1.17;100.00
35226;BME280;21813;49.686;21.766;2023-03-03T08:10:51;98566.53;;;-1.05;100.00
35226;BME280;21813;49.686;21.766;2023-03-03T08:13:28;98565.25;;;-0.92;100.00
35226;BME280;21813;49.686;21.766;2023-03-03T08:18:36;98572.38;;;-0.74;100.00
35226;BME280;21813;49.686;21.766;2023-03-03T08:21:13;98555.28;;;-0.73;100.00
35226;BME280;21813;49.686;21.766;2023-03-03T08:23:40;98564.31;;;-0.62;100.00
35226;BME280;21813;49.686;21.766;2023-03-03T08:26:06;98568.97;;;-0.47;100.00
35226;BME280;21813;49.686;21.766;2023-03-03T08:28:34;98570.22;;;-0.33;100.00
35226;BME280;21813;49.686;21.766;2023-03-03T08:31:00;98559.53;;;-0.20;100.00
35226;BME280;21813;49.686;21.766;2023-03-03T08:33:27;98550.53;;;-0.07;100.00
35226;BME280;21813;49.686;21.766;2023-03-03T08:35:56;98548.59;;;0.00;100.00
35226;BME280;21813;49.686;21.766;2023-03-03T08:38:24;98543.03;;;0.12;100.00
35226;BME280;21813;49.686;21.766;2023-03-03T08:40:50;98556.41;;;0.20;100.00
35226;BME280;21813;49.686;21.766;2023-03-03T08:43:19;98555.38;;;0.26;100.00
35226;BME280;21813;49.686;21.766;2023-03-03T08:45:51;98542.56;;;0.26;100.00
35226;BME280;21813;49.686;21.766;2023-03-03T08:48:19;98554.19;;;0.34;100.00
35226;BME280;21813;49.686;21.766;2023-03-03T08:50:45;98563.41;;;0.40;100.00
35226;BME280;21813;49.686;21.766;2023-03-03T08:53:13;98562.28;;;0.47;100.00
35226;BME280;21813;49.686;21.766;2023-03-03T08:55:40;98565.59;;;0.51;100.00
35226;BME280;21813;49.686;21.766;2023-03-03T08:58:07;98569.75;;;0.53;100.00
35226;BME280;21813;49.686;21.766;2023-03-03T09:00:33;98567.22;;;0.52;100.00
35226;BME280;21813;49.686;21.766;2023-03-03T09:02:59;98574.94;;;0.52;100.00
35226;BME280;21813;49.686;21.766;2023-03-03T09:05:25;98579.38;;;0.47;100.00
35226;BME280;21813;49.686;21.766;2023-03-03T09:07:53;98584.47;;;0.48;100.00
35226;BME280;21813;49.686;21.766;2023-03-03T09:10:22;98574.38;;;0.43;100.00
35226;BME280;21813;49.686;21.766;2023-03-03T09:12:54;98573.63;;;0.41;100.00
35226;BME280;21813;49.686;21.766;2023-03-03T09:15:31;98561.75;;;0.37;100.00
35226;BME280;21813;49.686;21.766;2023-03-03T09:18:08;98566.47;;;0.50;100.00
35226;BME280;21813;49.686;21.766;2023-03-03T09:20:38;98575.59;;;0.57;100.00
35226;BME280;21813;49.686;21.766;2023-03-03T09:25:58;98571.47;;;0.76;100.00
35226;BME280;21813;49.686;21.766;2023-03-03T09:28:31;98566.13;;;0.82;100.00
35226;BME280;21813;49.686;21.766;2023-03-03T09:31:02;98576.13;;;0.88;100.00
35226;BME280;21813;49.686;21.766;2023-03-03T09:33:42;98581.03;;;0.94;100.00
35226;BME280;21813;49.686;21.766;2023-03-03T09:38:44;98575.34;;;1.09;100.00
35226;BME280;21813;49.686;21.766;2023-03-03T09:46:45;98581.91;;;1.38;100.00
35226;BME280;21813;49.686;21.766;2023-03-03T09:49:31;98589.81;;;1.54;100.00
35226;BME280;21813;49.686;21.766;2023-03-03T09:54:51;98583.41;;;1.64;100.00
35226;BME280;21813;49.686;21.766;2023-03-03T10:11:32;98590.38;;;1.62;100.00
35226;BME280;21813;49.686;21.766;2023-03-03T10:25:00;98572.78;;;1.73;100.00
35226;BME280;21813;49.686;21.766;2023-03-03T10:30:27;98571.94;;;1.93;100.00
35226;BME280;21813;49.686;21.766;2023-03-03T10:38:18;98573.16;;;2.04;100.00
35226;BME280;21813;49.686;21.766;2023-03-03T10:46:27;98583.25;;;1.89;100.00
35226;BME280;21813;49.686;21.766;2023-03-03T10:52:15;98601.91;;;1.72;100.00
35226;BME280;21813;49.686;21.766;2023-03-03T11:06:19;98597.88;;;1.66;100.00
35226;BME280;21813;49.686;21.766;2023-03-03T11:14:22;98591.72;;;1.70;100.00
35226;BME280;21813;49.686;21.766;2023-03-03T11:17:29;98578.88;;;1.70;100.00
35226;BME280;21813;49.686;21.766;2023-03-03T11:20:06;98572.63;;;1.76;100.00
35226;BME280;21813;49.686;21.766;2023-03-03T11:22:57;98555.19;;;1.84;100.00
35226;BME280;21813;49.686;21.766;2023-03-03T11:25:29;98551.19;;;1.97;100.00
35226;BME280;21813;49.686;21.766;2023-03-03T11:36:20;98549.38;;;2.58;100.00
35226;BME280;21813;49.686;21.766;2023-03-03T11:38:53;98542.81;;;2.70;100.00
35226;BME280;21813;49.686;21.766;2023-03-03T11:44:32;98543.28;;;2.78;99.90
35226;BME280;21813;49.686;21.766;2023-03-03T11:47:12;98543.28;;;2.78;99.70
35226;BME280;21813;49.686;21.766;2023-03-03T11:55:12;98535.88;;;2.72;98.71
35226;BME280;21813;49.686;21.766;2023-03-03T11:57:53;98542.66;;;2.73;98.83
35226;BME280;21813;49.686;21.766;2023-03-03T12:00:29;98534.94;;;2.73;97.03
35226;BME280;21813;49.686;21.766;2023-03-03T12:11:25;98526.06;;;2.80;94.64
35226;BME280;21813;49.686;21.766;2023-03-03T12:13:56;98525.84;;;2.85;94.43
35226;BME280;21813;49.686;21.766;2023-03-03T12:19:21;98512.50;;;2.95;92.99
35226;BME280;21813;49.686;21.766;2023-03-03T12:22:34;98516.59;;;2.99;93.27
35226;BME280;21813;49.686;21.766;2023-03-03T12:30:54;98507.31;;;3.14;91.50
35226;BME280;21813;49.686;21.766;2023-03-03T12:36:39;98497.81;;;3.15;90.33
35226;BME280;21813;49.686;21.766;2023-03-03T12:41:59;98511.19;;;3.23;90.42
35226;BME280;21813;49.686;21.766;2023-03-03T12:47:36;98493.66;;;3.29;89.89
35226;BME280;21813;49.686;21.766;2023-03-03T13:15:19;98487.84;;;3.43;87.33
35226;BME280;21813;49.686;21.766;2023-03-03T13:17:59;98478.53;;;3.40;87.27
35226;BME280;21813;49.686;21.766;2023-03-03T13:23:07;98481.19;;;3.39;89.09
35226;BME280;21813;49.686;21.766;2023-03-03T13:25:43;98487.09;;;3.41;87.42
35226;BME280;21813;49.686;21.766;2023-03-03T13:28:21;98487.84;;;3.43;87.59
35226;BME280;21813;49.686;21.766;2023-03-03T13:30:56;98479.22;;;3.44;87.04
35226;BME280;21813;49.686;21.766;2023-03-03T13:33:33;98480.88;;;3.45;87.48
35226;BME280;21813;49.686;21.766;2023-03-03T13:36:08;98473.22;;;3.43;88.33
35226;BME280;21813;49.686;21.766;2023-03-03T13:38:39;98472.94;;;3.49;88.36
35226;BME280;21813;49.686;21.766;2023-03-03T13:41:19;98466.94;;;3.49;87.75
35226;BME280;21813;49.686;21.766;2023-03-03T13:43:55;98456.63;;;3.49;88.40
35226;BME280;21813;49.686;21.766;2023-03-03T13:52:26;98465.50;;;3.43;86.46
35226;BME280;21813;49.686;21.766;2023-03-03T13:57:42;98467.56;;;3.37;87.65
35226;BME280;21813;49.686;21.766;2023-03-03T14:03:53;98463.97;;;3.39;87.83
35226;BME280;21813;49.686;21.766;2023-03-03T14:06:25;98462.25;;;3.40;87.69
35226;BME280;21813;49.686;21.766;2023-03-03T14:08:59;98460.56;;;3.39;88.21
35226;BME280;21813;49.686;21.766;2023-03-03T14:11:44;98459.88;;;3.35;88.72
35226;BME280;21813;49.686;21.766;2023-03-03T14:14:14;98460.97;;;3.31;88.18
35226;BME280;21813;49.686;21.766;2023-03-03T14:19:34;98459.97;;;3.17;89.04
35226;BME280;21813;49.686;21.766;2023-03-03T14:22:37;98453.44;;;3.09;89.74
35226;BME280;21813;49.686;21.766;2023-03-03T14:25:09;98458.88;;;3.03;90.27
35226;BME280;21813;49.686;21.766;2023-03-03T14:27:52;98460.69;;;3.01;90.09
35226;BME280;21813;49.686;21.766;2023-03-03T14:30:41;98447.19;;;2.96;90.71
35226;BME280;21813;49.686;21.766;2023-03-03T14:35:47;98449.09;;;2.93;91.51
35226;BME280;21813;49.686;21.766;2023-03-03T14:38:21;98459.31;;;2.94;91.38
35226;BME280;21813;49.686;21.766;2023-03-03T14:40:48;98461.97;;;2.93;91.39
35226;BME280;21813;49.686;21.766;2023-03-03T14:43:32;98462.81;;;2.93;91.92
35226;BME280;21813;49.686;21.766;2023-03-03T14:46:33;98454.34;;;2.91;90.85
35226;BME280;21813;49.686;21.766;2023-03-03T14:49:02;98444.16;;;2.88;91.32
35226;BME280;21813;49.686;21.766;2023-03-03T14:51:46;98448.56;;;2.86;90.73
35226;BME280;21813;49.686;21.766;2023-03-03T14:54:27;98449.31;;;2.88;90.56
35226;BME280;21813;49.686;21.766;2023-03-03T14:59:37;98449.69;;;2.81;92.95
35226;BME280;21813;49.686;21.766;2023-03-03T15:04:46;98448.22;;;2.75;93.46
35226;BME280;21813;49.686;21.766;2023-03-03T15:09:51;98458.59;;;2.74;94.20
35226;BME280;21813;49.686;21.766;2023-03-03T15:12:25;98457.00;;;2.71;94.04
35226;BME280;21813;49.686;21.766;2023-03-03T15:17:37;98454.66;;;2.66;93.71
35226;BME280;21813;49.686;21.766;2023-03-03T15:23:12;98462.59;;;2.62;94.32
35226;BME280;21813;49.686;21.766;2023-03-03T15:39:28;98466.25;;;2.38;94.98
35226;BME280;21813;49.686;21.766;2023-03-03T15:42:10;98455.34;;;2.33;94.71
35226;BME280;21813;49.686;21.766;2023-03-03T15:56:19;98470.72;;;2.15;95.12
35226;BME280;21813;49.686;21.766;2023-03-03T16:02:09;98483.97;;;2.06;95.23
35226;BME280;21813;49.686;21.766;2023-03-03T16:30:24;98496.97;;;1.83;96.12
35226;BME280;21813;49.686;21.766;2023-03-03T16:36:23;98497.13;;;1.80;95.68
35226;BME280;21813;49.686;21.766;2023-03-03T16:39:03;98505.06;;;1.74;95.88
35226;BME280;21813;49.686;21.766;2023-03-03T16:42:18;98509.63;;;1.67;96.06
35226;BME280;21813;49.686;21.766;2023-03-03T16:45:32;98505.00;;;1.55;96.55
35226;BME280;21813;49.686;21.766;2023-03-03T16:54:10;98507.91;;;1.48;96.34
35226;BME280;21813;49.686;21.766;2023-03-03T17:22:17;98529.63;;;1.39;97.67
35226;BME280;21813;49.686;21.766;2023-03-03T18:00:05;98540.81;;;1.16;98.59
35226;BME280;21813;49.686;21.766;2023-03-03T18:02:56;98543.56;;;1.12;98.11
35226;BME280;21813;49.686;21.766;2023-03-03T18:08:33;98545.59;;;1.04;97.58
35226;BME280;21813;49.686;21.766;2023-03-03T18:11:22;98535.38;;;1.02;97.23
35226;BME280;21813;49.686;21.766;2023-03-03T18:14:12;98538.97;;;0.98;98.02
35226;BME280;21813;49.686;21.766;2023-03-03T18:17:14;98538.25;;;0.95;98.23
35226;BME280;21813;49.686;21.766;2023-03-03T18:19:57;98540.00;;;0.94;98.31
35226;BME280;21813;49.686;21.766;2023-03-03T18:26:34;98548.69;;;0.90;98.88
35226;BME280;21813;49.686;21.766;2023-03-03T18:29:35;98547.16;;;0.86;99.98
35226;BME280;21813;49.686;21.766;2023-03-03T18:32:04;98550.72;;;0.82;100.00
35226;BME280;21813;49.686;21.766;2023-03-03T18:34:42;98544.94;;;0.77;99.84
35226;BME280;21813;49.686;21.766;2023-03-03T18:42:43;98550.38;;;0.69;99.97
35226;BME280;21813;49.686;21.766;2023-03-03T18:48:08;98536.03;;;0.64;100.00
35226;BME280;21813;49.686;21.766;2023-03-03T19:04:44;98550.97;;;0.53;100.00
35226;BME280;21813;49.686;21.766;2023-03-03T19:09:52;98555.34;;;0.51;100.00
35226;BME280;21813;49.686;21.766;2023-03-03T19:19:29;98554.50;;;0.50;100.00
35226;BME280;21813;49.686;21.766;2023-03-03T19:22:20;98552.84;;;0.48;100.00